sensor_id;sensor_type;location;lat;lon;timestamp;pressure;altitude;pressure_sealevel;temperature;humidity
60725;BME280;59881;36.722;-4.462;2022-10-20T00:00:17;100462.81;;;17.06;100.00
60725;BME280;59881;36.722;-4.462;2022-10-20T00:02:43;100801.06;;;19.16;100.00
60725;BME280;59881;36.722;-4.462;2022-10-20T00:05:09;100767.69;;;18.94;100.00
60725;BME280;59881;36.722;-4.462;2022-10-20T00:07:34;100703.13;;;18.55;100.00
60725;BME280;59881;36.722;-4.462;2022-10-20T00:10:00;100927.94;;;20.00;100.00
60725;BME280;59881;36.722;-4.462;2022-10-20T00:12:25;100884.53;;;19.36;100.00
60725;BME280;59881;36.722;-4.462;2022-10-20T00:31:47;100674.69;;;18.46;100.00
60725;BME280;59881;36.722;-4.462;2022-10-20T00:34:12;100814.19;;;19.54;100.00
60725;BME280;59881;36.722;-4.462;2022-10-20T00:36:38;100809.41;;;19.13;100.00
60725;BME280;59881;36.722;-4.462;2022-10-20T00:39:05;100974.50;;;20.16;100.00
60725;BME280;59881;36.722;-4.462;2022-10-20T00:44:57;100919.34;;;20.15;100.00
60725;BME280;59881;36.722;-4.462;2022-10-20T00:50:09;100871.06;;;19.90;100.00
60725;BME280;59881;36.722;-4.462;2022-10-20T00:52:37;100908.44;;;20.08;100.00
60725;BME280;59881;36.722;-4.462;2022-10-20T00:55:06;100497.94;;;17.55;100.00
60725;BME280;59881;36.722;-4.462;2022-10-20T00:57:32;100542.19;;;17.84;100.00
60725;BME280;59881;36.722;-4.462;2022-10-20T01:17:00;100895.81;;;19.92;100.00
60725;BME280;59881;36.722;-4.462;2022-10-20T01:28:01;100901.34;;;19.91;100.00
60725;BME280;59881;36.722;-4.462;2022-10-20T01:30:28;100653.28;;;18.37;100.00
60725;BME280;59881;36.722;-4.462;2022-10-20T01:33:19;100901.81;;;19.86;100.00
60725;BME280;59881;36.722;-4.462;2022-10-20T01:35:51;100888.88;;;19.81;100.00
60725;BME280;59881;36.722;-4.462;2022-10-20T01:38:38;100892.72;;;19.79;100.00
60725;BME280;59881;36.722;-4.462;2022-10-20T01:41:29;100869.69;;;19.60;100.00
60725;BME280;59881;36.722;-4.462;2022-10-20T01:43:59;100729.09;;;18.53;100.00
60725;BME280;59881;36.722;-4.462;2022-10-20T01:46:25;100859.41;;;19.47;100.00
60725;BME280;59881;36.722;-4.462;2022-10-20T01:48:52;100891.66;;;19.72;100.00
60725;BME280;59881;36.722;-4.462;2022-10-20T01:51:18;100864.13;;;19.53;100.00
60725;BME280;59881;36.722;-4.462;2022-10-20T01:53:44;100890.16;;;19.69;100.00
60725;BME280;59881;36.722;-4.462;2022-10-20T01:56:25;100893.66;;;19.70;100.00
60725;BME280;59881;36.722;-4.462;2022-10-20T02:04:01;100895.50;;;19.69;100.00
60725;BME280;59881;36.722;-4.462;2022-10-20T02:06:47;100945.56;;;19.67;100.00
60725;BME280;59881;36.722;-4.462;2022-10-20T02:09:42;100477.75;;;17.17;100.00
60725;BME280;59881;36.722;-4.462;2022-10-20T02:12:23;100507.28;;;17.24;100.00
60725;BME280;59881;36.722;-4.462;2022-10-20T02:14:51;100738.31;;;18.76;100.00
60725;BME280;59881;36.722;-4.462;2022-10-20T02:17:18;100892.25;;;19.65;100.00
60725;BME280;59881;36.722;-4.462;2022-10-20T02:19:47;100895.94;;;19.64;100.00
60725;BME280;59881;36.722;-4.462;2022-10-20T02:22:15;100753.06;;;18.80;100.00
60725;BME280;59881;36.722;-4.462;2022-10-20T02:24:43;100908.28;;;19.65;100.00
60725;BME280;59881;36.722;-4.462;2022-10-20T02:27:26;100886.91;;;19.65;100.00
60725;BME280;59881;36.722;-4.462;2022-10-20T02:29:59;100536.09;;;17.28;100.00
60725;BME280;59881;36.722;-4.462;2022-10-20T02:32:27;100824.25;;;19.34;100.00
60725;BME280;59881;36.722;-4.462;2022-10-20T02:34:53;100302.75;;;16.20;100.00
60725;BME280;59881;36.722;-4.462;2022-10-20T02:37:19;100573.47;;;17.82;100.00
60725;BME280;59881;36.722;-4.462;2022-10-20T02:39:44;100793.75;;;19.18;100.00
60725;BME280;59881;36.722;-4.462;2022-10-20T02:42:10;100870.72;;;19.67;100.00
60725;BME280;59881;36.722;-4.462;2022-10-20T02:44:37;100887.47;;;19.69;100.00
60725;BME280;59881;36.722;-4.462;2022-10-20T02:47:02;100035.03;;;14.57;100.00
60725;BME280;59881;36.722;-4.462;2022-10-20T02:49:28;100719.66;;;18.05;100.00
60725;BME280;59881;36.722;-4.462;2022-10-20T02:51:53;100557.09;;;17.95;100.00
60725;BME280;59881;36.722;-4.462;2022-10-20T02:54:19;100849.72;;;19.72;100.00
60725;BME280;59881;36.722;-4.462;2022-10-20T02:56:45;100799.03;;;19.10;100.00
60725;BME280;59881;36.722;-4.462;2022-10-20T02:59:15;100527.63;;;17.61;100.00
60725;BME280;59881;36.722;-4.462;2022-10-20T03:01:41;100860.81;;;19.77;100.00
60725;BME280;59881;36.722;-4.462;2022-10-20T03:04:07;100379.94;;;16.18;100.00
60725;BME280;59881;36.722;-4.462;2022-10-20T03:06:33;100768.06;;;19.17;100.00
60725;BME280;59881;36.722;-4.462;2022-10-20T03:08:58;100843.16;;;19.67;100.00
60725;BME280;59881;36.722;-4.462;2022-10-20T03:11:24;100751.13;;;19.09;100.00
60725;BME280;59881;36.722;-4.462;2022-10-20T03:13:50;100760.88;;;19.18;100.00
60725;BME280;59881;36.722;-4.462;2022-10-20T03:16:15;100832.97;;;19.62;100.00
60725;BME280;59881;36.722;-4.462;2022-10-20T03:18:41;100880.53;;;19.58;100.00
60725;BME280;59881;36.722;-4.462;2022-10-20T03:21:06;100831.22;;;19.53;100.00
60725;BME280;59881;36.722;-4.462;2022-10-20T03:23:32;100725.69;;;18.25;100.00
60725;BME280;59881;36.722;-4.462;2022-10-20T03:26:05;100741.78;;;18.87;100.00
60725;BME280;59881;36.722;-4.462;2022-10-20T03:28:31;100534.94;;;17.58;100.00
60725;BME280;59881;36.722;-4.462;2022-10-20T03:30:57;100737.75;;;18.83;100.00
60725;BME280;59881;36.722;-4.462;2022-10-20T03:33:23;100843.38;;;19.47;100.00
60725;BME280;59881;36.722;-4.462;2022-10-20T03:35:48;100298.53;;;15.89;100.00
60725;BME280;59881;36.722;-4.462;2022-10-20T03:38:14;100897.97;;;19.44;100.00
60725;BME280;59881;36.722;-4.462;2022-10-20T03:40:40;100834.00;;;19.43;100.00
60725;BME280;59881;36.722;-4.462;2022-10-20T03:43:05;100612.63;;;17.99;100.00
60725;BME280;59881;36.722;-4.462;2022-10-20T03:45:31;100751.94;;;18.83;100.00
60725;BME280;59881;36.722;-4.462;2022-10-20T03:47:56;100843.00;;;19.42;100.00
60725;BME280;59881;36.722;-4.462;2022-10-20T03:50:22;100483.97;;;17.08;100.00
60725;BME280;59881;36.722;-4.462;2022-10-20T03:52:47;100832.13;;;18.81;100.00
60725;BME280;59881;36.722;-4.462;2022-10-20T03:55:14;100845.97;;;19.39;100.00
60725;BME280;59881;36.722;-4.462;2022-10-20T03:57:40;100836.16;;;19.39;100.00
60725;BME280;59881;36.722;-4.462;2022-10-20T04:00:05;100864.69;;;19.39;100.00
60725;BME280;59881;36.722;-4.462;2022-10-20T04:02:36;100747.16;;;18.77;100.00
60725;BME280;59881;36.722;-4.462;2022-10-20T04:05:03;100745.66;;;18.74;100.00
60725;BME280;59881;36.722;-4.462;2022-10-20T04:07:29;100474.53;;;17.13;100.00
60725;BME280;59881;36.722;-4.462;2022-10-20T04:09:55;100458.69;;;16.66;100.00
60725;BME280;59881;36.722;-4.462;2022-10-20T04:12:22;100457.28;;;17.00;100.00
60725;BME280;59881;36.722;-4.462;2022-10-20T04:14:47;100591.25;;;17.18;100.00
60725;BME280;59881;36.722;-4.462;2022-10-20T04:17:13;100843.09;;;19.32;100.00
60725;BME280;59881;36.722;-4.462;2022-10-20T04:19:39;100406.81;;;16.52;100.00
60725;BME280;59881;36.722;-4.462;2022-10-20T04:22:04;100696.59;;;18.31;100.00
60725;BME280;59881;36.722;-4.462;2022-10-20T04:24:30;100859.81;;;19.34;100.00
60725;BME280;59881;36.722;-4.462;2022-10-20T04:26:55;100330.22;;;16.10;100.00
60725;BME280;59881;36.722;-4.462;2022-10-20T04:29:21;100347.16;;;16.00;100.00
60725;BME280;59881;36.722;-4.462;2022-10-20T04:31:46;100697.28;;;18.33;100.00
60725;BME280;59881;36.722;-4.462;2022-10-20T04:34:12;100780.44;;;18.83;100.00
60725;BME280;59881;36.722;-4.462;2022-10-20T04:36:37;100821.78;;;18.96;100.00
60725;BME280;59881;36.722;-4.462;2022-10-20T04:39:06;100517.13;;;17.13;100.00
60725;BME280;59881;36.722;-4.462;2022-10-20T04:41:32;100538.59;;;16.74;100.00
60725;BME280;59881;36.722;-4.462;2022-10-20T04:43:58;100572.94;;;17.05;100.00
60725;BME280;59881;36.722;-4.462;2022-10-20T04:46:23;100944.91;;;19.29;100.00
60725;BME280;59881;36.722;-4.462;2022-10-20T04:48:51;100903.00;;;19.30;100.00
60725;BME280;59881;36.722;-4.462;2022-10-20T04:51:16;100965.44;;;19.29;100.00
60725;BME280;59881;36.722;-4.462;2022-10-20T04:53:42;100311.22;;;15.48;100.00
60725;BME280;59881;36.722;-4.462;2022-10-20T04:56:12;100871.78;;;19.30;100.00
60725;BME280;59881;36.722;-4.462;2022-10-20T04:58:38;100876.00;;;19.33;100.00
60725;BME280;59881;36.722;-4.462;2022-10-20T05:01:06;100519.66;;;17.15;100.00
60725;BME280;59881;36.722;-4.462;2022-10-20T05:03:32;100464.81;;;16.39;100.00
60725;BME280;59881;36.722;-4.462;2022-10-20T05:06:19;101065.81;;;19.31;100.00
60725;BME280;59881;36.722;-4.462;2022-10-20T05:08:47;100791.09;;;18.47;100.00
60725;BME280;59881;36.722;-4.462;2022-10-20T05:11:14;100883.09;;;19.24;100.00
60725;BME280;59881;36.722;-4.462;2022-10-20T05:13:41;100877.22;;;19.20;100.00
60725;BME280;59881;36.722;-4.462;2022-10-20T05:16:07;100624.22;;;17.63;100.00
60725;BME280;59881;36.722;-4.462;2022-10-20T05:18:33;100039.69;;;14.06;100.00
60725;BME280;59881;36.722;-4.462;2022-10-20T05:21:04;100875.53;;;19.19;100.00
60725;BME280;59881;36.722;-4.462;2022-10-20T05:23:30;100895.91;;;19.20;100.00
60725;BME280;59881;36.722;-4.462;2022-10-20T05:25:55;100975.72;;;19.23;100.00
60725;BME280;59881;36.722;-4.462;2022-10-20T05:28:21;100777.06;;;18.63;100.00
60725;BME280;59881;36.722;-4.462;2022-10-20T05:30:46;100848.78;;;19.11;100.00
60725;BME280;59881;36.722;-4.462;2022-10-20T05:33:12;100876.28;;;19.30;100.00
60725;BME280;59881;36.722;-4.462;2022-10-20T05:35:37;100816.13;;;18.81;100.00
60725;BME280;59881;36.722;-4.462;2022-10-20T05:38:03;100590.88;;;17.03;100.00
60725;BME280;59881;36.722;-4.462;2022-10-20T05:40:28;100944.38;;;19.26;100.00
60725;BME280;59881;36.722;-4.462;2022-10-20T05:42:54;100799.84;;;18.75;100.00
60725;BME280;59881;36.722;-4.462;2022-10-20T05:45:19;100847.50;;;18.70;100.00
60725;BME280;59881;36.722;-4.462;2022-10-20T05:47:45;100419.47;;;16.41;100.00
60725;BME280;59881;36.722;-4.462;2022-10-20T05:50:10;100882.19;;;19.15;100.00
60725;BME280;59881;36.722;-4.462;2022-10-20T05:52:36;100880.50;;;19.14;100.00
60725;BME280;59881;36.722;-4.462;2022-10-20T05:55:02;100884.19;;;19.13;100.00
60725;BME280;59881;36.722;-4.462;2022-10-20T05:57:28;100602.09;;;17.34;100.00
60725;BME280;59881;36.722;-4.462;2022-10-20T05:59:54;100893.47;;;19.09;100.00
60725;BME280;59881;36.722;-4.462;2022-10-20T06:02:19;100884.47;;;19.10;100.00
60725;BME280;59881;36.722;-4.462;2022-10-20T06:04:45;100815.03;;;18.56;100.00
60725;BME280;59881;36.722;-4.462;2022-10-20T06:07:11;100884.94;;;19.06;100.00
60725;BME280;59881;36.722;-4.462;2022-10-20T06:09:37;100715.44;;;18.02;100.00
60725;BME280;59881;36.722;-4.462;2022-10-20T06:12:03;100764.31;;;18.20;100.00
60725;BME280;59881;36.722;-4.462;2022-10-20T06:14:29;100725.38;;;18.10;100.00
60725;BME280;59881;36.722;-4.462;2022-10-20T06:16:55;100903.47;;;19.07;100.00
60725;BME280;59881;36.722;-4.462;2022-10-20T06:19:22;100844.13;;;18.77;100.00
60725;BME280;59881;36.722;-4.462;2022-10-20T06:21:47;100766.00;;;18.39;100.00
60725;BME280;59881;36.722;-4.462;2022-10-20T06:24:13;100873.72;;;19.02;100.00
60725;BME280;59881;36.722;-4.462;2022-10-20T06:26:39;100868.41;;;19.02;100.00
60725;BME280;59881;36.722;-4.462;2022-10-20T06:29:09;100870.19;;;19.01;100.00
60725;BME280;59881;36.722;-4.462;2022-10-20T06:31:39;100845.72;;;18.88;100.00
60725;BME280;59881;36.722;-4.462;2022-10-20T06:34:07;100204.63;;;14.96;100.00
60725;BME280;59881;36.722;-4.462;2022-10-20T06:36:34;100793.91;;;18.63;100.00
60725;BME280;59881;36.722;-4.462;2022-10-20T06:39:00;100791.25;;;18.63;100.00
60725;BME280;59881;36.722;-4.462;2022-10-20T06:41:28;100921.34;;;19.07;100.00
60725;BME280;59881;36.722;-4.462;2022-10-20T06:43:54;100869.00;;;19.14;100.00
60725;BME280;59881;36.722;-4.462;2022-10-20T06:46:25;100864.34;;;19.16;100.00
60725;BME280;59881;36.722;-4.462;2022-10-20T06:48:50;100466.47;;;16.77;100.00
60725;BME280;59881;36.722;-4.462;2022-10-20T06:51:17;100867.22;;;19.22;100.00
60725;BME280;59881;36.722;-4.462;2022-10-20T06:53:44;100773.81;;;18.69;100.00
60725;BME280;59881;36.722;-4.462;2022-10-20T06:56:12;100819.31;;;19.03;100.00
60725;BME280;59881;36.722;-4.462;2022-10-20T06:58:40;100889.34;;;19.15;100.00
60725;BME280;59881;36.722;-4.462;2022-10-20T07:01:10;100883.03;;;19.60;100.00
60725;BME280;59881;36.722;-4.462;2022-10-20T07:03:36;100882.50;;;19.74;100.00
60725;BME280;59881;36.722;-4.462;2022-10-20T07:06:03;100885.28;;;19.91;100.00
60725;BME280;59881;36.722;-4.462;2022-10-20T07:08:30;100883.38;;;20.09;100.00
60725;BME280;59881;36.722;-4.462;2022-10-20T07:11:01;100858.28;;;20.10;100.00
60725;BME280;59881;36.722;-4.462;2022-10-20T07:13:27;100887.69;;;20.44;100.00
60725;BME280;59881;36.722;-4.462;2022-10-20T07:15:55;100873.69;;;20.51;100.00
60725;BME280;59881;36.722;-4.462;2022-10-20T07:18:22;100788.66;;;20.28;100.00
60725;BME280;59881;36.722;-4.462;2022-10-20T07:20:48;100912.34;;;21.15;98.25
60725;BME280;59881;36.722;-4.462;2022-10-20T07:23:13;100886.41;;;21.48;96.19
60725;BME280;59881;36.722;-4.462;2022-10-20T07:25:39;100891.06;;;21.79;93.79
60725;BME280;59881;36.722;-4.462;2022-10-20T07:28:04;100172.84;;;17.57;90.64
60725;BME280;59881;36.722;-4.462;2022-10-20T07:30:30;100968.09;;;22.26;88.59
60725;BME280;59881;36.722;-4.462;2022-10-20T07:32:56;100924.19;;;22.27;85.66
60725;BME280;59881;36.722;-4.462;2022-10-20T07:35:21;100925.16;;;22.18;84.23
60725;BME280;59881;36.722;-4.462;2022-10-20T07:37:48;100558.75;;;19.85;83.23
60725;BME280;59881;36.722;-4.462;2022-10-20T07:40:14;100927.28;;;21.83;83.22
60725;BME280;59881;36.722;-4.462;2022-10-20T07:42:39;100991.13;;;21.63;84.15
60725;BME280;59881;36.722;-4.462;2022-10-20T07:45:06;100897.75;;;20.93;84.46
60725;BME280;59881;36.722;-4.462;2022-10-20T07:47:31;100927.13;;;21.44;85.36
60725;BME280;59881;36.722;-4.462;2022-10-20T07:49:57;100522.25;;;18.93;85.66
60725;BME280;59881;36.722;-4.462;2022-10-20T07:52:22;100926.44;;;21.42;86.27
60725;BME280;59881;36.722;-4.462;2022-10-20T07:54:48;100922.75;;;21.35;86.46
60725;BME280;59881;36.722;-4.462;2022-10-20T07:57:13;100712.00;;;19.94;86.72
60725;BME280;59881;36.722;-4.462;2022-10-20T07:59:39;100876.66;;;20.90;87.13
60725;BME280;59881;36.722;-4.462;2022-10-20T08:02:04;100838.78;;;20.60;88.18
60725;BME280;59881;36.722;-4.462;2022-10-20T08:04:30;100725.22;;;19.96;88.20
60725;BME280;59881;36.722;-4.462;2022-10-20T08:06:56;100936.34;;;21.41;88.49
60725;BME280;59881;36.722;-4.462;2022-10-20T08:09:22;100957.03;;;21.23;88.32
60725;BME280;59881;36.722;-4.462;2022-10-20T08:11:48;100924.63;;;21.59;87.87
60725;BME280;59881;36.722;-4.462;2022-10-20T08:14:14;100859.94;;;21.37;86.95
60725;BME280;59881;36.722;-4.462;2022-10-20T08:16:39;100431.19;;;18.96;85.16
60725;BME280;59881;36.722;-4.462;2022-10-20T08:19:05;100999.47;;;22.26;83.70
60725;BME280;59881;36.722;-4.462;2022-10-20T08:21:31;100895.63;;;22.35;82.12
60725;BME280;59881;36.722;-4.462;2022-10-20T08:23:56;100916.75;;;22.69;80.56
60725;BME280;59881;36.722;-4.462;2022-10-20T08:26:24;100919.28;;;23.02;79.28
60725;BME280;59881;36.722;-4.462;2022-10-20T08:28:52;100901.44;;;23.09;77.59
60725;BME280;59881;36.722;-4.462;2022-10-20T08:31:18;100919.81;;;23.20;75.85
60725;BME280;59881;36.722;-4.462;2022-10-20T08:33:44;100639.19;;;21.46;74.76
60725;BME280;59881;36.722;-4.462;2022-10-20T08:36:12;100962.50;;;23.23;74.92
60725;BME280;59881;36.722;-4.462;2022-10-20T08:38:39;100962.94;;;23.04;75.05
60725;BME280;59881;36.722;-4.462;2022-10-20T08:41:06;100645.66;;;20.96;75.72
60725;BME280;59881;36.722;-4.462;2022-10-20T08:43:39;100982.16;;;22.84;76.39
60725;BME280;59881;36.722;-4.462;2022-10-20T08:46:06;100896.47;;;22.27;76.66
60725;BME280;59881;36.722;-4.462;2022-10-20T08:48:33;100930.31;;;22.44;76.81
60725;BME280;59881;36.722;-4.462;2022-10-20T08:50:58;101034.91;;;22.77;76.25
60725;BME280;59881;36.722;-4.462;2022-10-20T08:53:25;100903.88;;;22.25;76.41
60725;BME280;59881;36.722;-4.462;2022-10-20T08:55:53;100612.59;;;20.64;76.28
60725;BME280;59881;36.722;-4.462;2022-10-20T08:58:21;100988.63;;;23.06;75.91
60725;BME280;59881;36.722;-4.462;2022-10-20T09:00:54;100967.16;;;23.29;75.33
60725;BME280;59881;36.722;-4.462;2022-10-20T09:03:23;100949.56;;;23.42;74.25
60725;BME280;59881;36.722;-4.462;2022-10-20T09:05:54;100950.41;;;23.42;73.32
60725;BME280;59881;36.722;-4.462;2022-10-20T09:08:24;100982.66;;;23.42;74.31
60725;BME280;59881;36.722;-4.462;2022-10-20T09:10:53;100986.13;;;23.28;75.80
60725;BME280;59881;36.722;-4.462;2022-10-20T09:13:25;100975.31;;;23.13;76.19
60725;BME280;59881;36.722;-4.462;2022-10-20T09:16:04;100952.97;;;22.81;77.21
60725;BME280;59881;36.722;-4.462;2022-10-20T09:18:31;100776.53;;;21.32;77.66
60725;BME280;59881;36.722;-4.462;2022-10-20T09:21:11;100983.81;;;23.25;77.73
60725;BME280;59881;36.722;-4.462;2022-10-20T09:23:45;101024.47;;;23.22;77.81
60725;BME280;59881;36.722;-4.462;2022-10-20T09:26:21;100931.31;;;23.14;76.29
60725;BME280;59881;36.722;-4.462;2022-10-20T09:28:49;100327.94;;;19.21;76.72
60725;BME280;59881;36.722;-4.462;2022-10-20T09:31:32;100956.41;;;22.98;77.43
60725;BME280;59881;36.722;-4.462;2022-10-20T09:33:59;100635.34;;;20.60;78.88
60725;BME280;59881;36.722;-4.462;2022-10-20T09:36:30;101098.78;;;22.34;81.00
60725;BME280;59881;36.722;-4.462;2022-10-20T09:38:58;100595.06;;;19.46;83.33
60725;BME280;59881;36.722;-4.462;2022-10-20T09:41:27;100984.75;;;21.56;86.40
60725;BME280;59881;36.722;-4.462;2022-10-20T09:43:57;100972.44;;;21.13;88.72
60725;BME280;59881;36.722;-4.462;2022-10-20T09:46:43;100647.56;;;18.94;90.13
60725;BME280;59881;36.722;-4.462;2022-10-20T09:49:31;100663.72;;;18.93;91.80
60725;BME280;59881;36.722;-4.462;2022-10-20T09:51:59;100973.13;;;20.64;93.69
60725;BME280;59881;36.722;-4.462;2022-10-20T09:54:26;101017.03;;;20.53;94.91
60725;BME280;59881;36.722;-4.462;2022-10-20T09:56:52;100977.16;;;20.42;95.27
60725;BME280;59881;36.722;-4.462;2022-10-20T09:59:22;100970.84;;;20.77;95.74
60725;BME280;59881;36.722;-4.462;2022-10-20T10:04:51;100987.97;;;21.01;94.54
60725;BME280;59881;36.722;-4.462;2022-10-20T10:09:56;100976.28;;;21.18;94.28
60725;BME280;59881;36.722;-4.462;2022-10-20T10:12:24;100985.72;;;21.39;93.32
60725;BME280;59881;36.722;-4.462;2022-10-20T10:14:56;100979.66;;;20.70;92.10
60725;BME280;59881;36.722;-4.462;2022-10-20T10:17:30;100362.25;;;18.32;90.21
60725;BME280;59881;36.722;-4.462;2022-10-20T10:19:56;100973.44;;;22.43;88.11
60725;BME280;59881;36.722;-4.462;2022-10-20T10:22:21;100951.50;;;22.31;85.60
60725;BME280;59881;36.722;-4.462;2022-10-20T10:24:48;100981.53;;;22.26;84.50
60725;BME280;59881;36.722;-4.462;2022-10-20T10:29:52;100946.03;;;21.67;87.32
60725;BME280;59881;36.722;-4.462;2022-10-20T10:32:21;100990.78;;;21.91;87.05
60725;BME280;59881;36.722;-4.462;2022-10-20T10:37:19;100990.47;;;21.86;88.20
60725;BME280;59881;36.722;-4.462;2022-10-20T10:39:44;100968.31;;;21.76;88.65
60725;BME280;59881;36.722;-4.462;2022-10-20T10:48:17;101010.03;;;22.19;86.07
60725;BME280;59881;36.722;-4.462;2022-10-20T10:50:59;101014.09;;;21.99;85.43
60725;BME280;59881;36.722;-4.462;2022-10-20T10:56:20;101077.22;;;21.44;88.86
60725;BME280;59881;36.722;-4.462;2022-10-20T10:58:58;101023.34;;;21.21;90.55
60725;BME280;59881;36.722;-4.462;2022-10-20T11:06:41;101056.72;;;20.84;94.53
60725;BME280;59881;36.722;-4.462;2022-10-20T11:14:48;101023.81;;;20.65;97.12
60725;BME280;59881;36.722;-4.462;2022-10-20T11:18:13;101020.28;;;20.57;97.88
60725;BME280;59881;36.722;-4.462;2022-10-20T11:20:54;101019.25;;;20.58;98.95
60725;BME280;59881;36.722;-4.462;2022-10-20T11:23:31;101011.28;;;20.66;99.41
60725;BME280;59881;36.722;-4.462;2022-10-20T11:28:42;100997.50;;;20.95;98.70
60725;BME280;59881;36.722;-4.462;2022-10-20T11:31:44;101001.72;;;21.14;98.10
60725;BME280;59881;36.722;-4.462;2022-10-20T11:34:38;101004.44;;;21.22;97.04
60725;BME280;59881;36.722;-4.462;2022-10-20T11:39:56;101001.34;;;21.01;95.90
60725;BME280;59881;36.722;-4.462;2022-10-20T11:42:43;100999.69;;;21.00;96.84
60725;BME280;59881;36.722;-4.462;2022-10-20T11:48:14;100990.97;;;20.98;96.72
60725;BME280;59881;36.722;-4.462;2022-10-20T11:50:42;100983.09;;;20.88;97.44
60725;BME280;59881;36.722;-4.462;2022-10-20T11:59:49;100971.13;;;20.66;99.20
60725;BME280;59881;36.722;-4.462;2022-10-20T12:08:02;100963.06;;;20.32;100.00
60725;BME280;59881;36.722;-4.462;2022-10-20T12:10:42;100969.72;;;20.27;100.00
60725;BME280;59881;36.722;-4.462;2022-10-20T12:15:58;100885.09;;;19.66;100.00
60725;BME280;59881;36.722;-4.462;2022-10-20T12:18:28;100884.88;;;19.77;100.00
60725;BME280;59881;36.722;-4.462;2022-10-20T12:20:56;100963.81;;;20.16;100.00
60725;BME280;59881;36.722;-4.462;2022-10-20T12:29:01;100960.31;;;20.15;100.00
60725;BME280;59881;36.722;-4.462;2022-10-20T12:34:48;100577.41;;;17.60;100.00
60725;BME280;59881;36.722;-4.462;2022-10-20T12:37:28;100948.38;;;20.10;100.00
60725;BME280;59881;36.722;-4.462;2022-10-20T12:39:56;100931.41;;;19.93;100.00
60725;BME280;59881;36.722;-4.462;2022-10-20T12:42:29;100365.06;;;16.35;100.00
60725;BME280;59881;36.722;-4.462;2022-10-20T12:45:03;100710.59;;;18.51;100.00
60725;BME280;59881;36.722;-4.462;2022-10-20T12:47:30;100970.88;;;19.99;100.00
60725;BME280;59881;36.722;-4.462;2022-10-20T12:49:58;100605.19;;;17.75;100.00
60725;BME280;59881;36.722;-4.462;2022-10-20T12:52:33;100743.91;;;18.65;100.00
60725;BME280;59881;36.722;-4.462;2022-10-20T12:55:07;100957.03;;;19.41;100.00
60725;BME280;59881;36.722;-4.462;2022-10-20T12:57:39;100565.63;;;17.35;100.00
60725;BME280;59881;36.722;-4.462;2022-10-20T13:02:53;100969.91;;;20.00;100.00
60725;BME280;59881;36.722;-4.462;2022-10-20T13:05:27;100970.38;;;19.95;100.00
60725;BME280;59881;36.722;-4.462;2022-10-20T13:23:13;100936.72;;;20.11;100.00
60725;BME280;59881;36.722;-4.462;2022-10-20T13:25:44;100459.56;;;17.12;100.00
60725;BME280;59881;36.722;-4.462;2022-10-20T13:30:56;100569.94;;;17.91;100.00
60725;BME280;59881;36.722;-4.462;2022-10-20T13:33:51;100944.75;;;20.19;100.00
60725;BME280;59881;36.722;-4.462;2022-10-20T13:39:36;100780.59;;;19.25;100.00
60725;BME280;59881;36.722;-4.462;2022-10-20T13:42:39;100812.31;;;19.46;100.00
60725;BME280;59881;36.722;-4.462;2022-10-20T13:47:50;100925.41;;;20.25;100.00
60725;BME280;59881;36.722;-4.462;2022-10-20T13:50:25;100925.09;;;20.28;100.00
60725;BME280;59881;36.722;-4.462;2022-10-20T13:52:55;100918.94;;;20.36;100.00
60725;BME280;59881;36.722;-4.462;2022-10-20T13:55:28;100451.91;;;17.63;100.00
60725;BME280;59881;36.722;-4.462;2022-10-20T13:57:58;100416.28;;;17.46;100.00
60725;BME280;59881;36.722;-4.462;2022-10-20T14:00:30;100763.69;;;19.69;100.00
60725;BME280;59881;36.722;-4.462;2022-10-20T14:03:13;100910.88;;;20.62;100.00
60725;BME280;59881;36.722;-4.462;2022-10-20T14:05:39;100728.19;;;18.98;100.00
60725;BME280;59881;36.722;-4.462;2022-10-20T14:08:10;100598.19;;;18.72;100.00
60725;BME280;59881;36.722;-4.462;2022-10-20T14:11:06;100923.63;;;20.68;100.00
60725;BME280;59881;36.722;-4.462;2022-10-20T14:13:35;100924.31;;;20.70;100.00
60725;BME280;59881;36.722;-4.462;2022-10-20T14:16:06;100928.00;;;20.77;100.00
60725;BME280;59881;36.722;-4.462;2022-10-20T14:18:40;100934.34;;;20.76;100.00
60725;BME280;59881;36.722;-4.462;2022-10-20T14:21:14;100863.25;;;20.31;100.00
60725;BME280;59881;36.722;-4.462;2022-10-20T14:23:42;100445.50;;;17.92;99.38
60725;BME280;59881;36.722;-4.462;2022-10-20T14:26:17;100278.97;;;16.64;99.30
60725;BME280;59881;36.722;-4.462;2022-10-20T14:28:44;100988.06;;;20.83;99.67
60725;BME280;59881;36.722;-4.462;2022-10-20T14:31:10;100957.06;;;20.38;99.09
60725;BME280;59881;36.722;-4.462;2022-10-20T14:33:41;100946.63;;;20.95;99.02
60725;BME280;59881;36.722;-4.462;2022-10-20T14:36:18;100938.94;;;21.00;98.52
60725;BME280;59881;36.722;-4.462;2022-10-20T14:38:50;100882.50;;;20.77;98.18
60725;BME280;59881;36.722;-4.462;2022-10-20T14:41:27;100999.03;;;21.06;97.43
60725;BME280;59881;36.722;-4.462;2022-10-20T14:44:03;100586.44;;;18.83;96.86
60725;BME280;59881;36.722;-4.462;2022-10-20T14:46:40;100942.63;;;20.99;97.12
60725;BME280;59881;36.722;-4.462;2022-10-20T14:49:26;100945.78;;;20.95;97.20
60725;BME280;59881;36.722;-4.462;2022-10-20T14:51:57;100913.28;;;20.81;97.26
60725;BME280;59881;36.722;-4.462;2022-10-20T14:54:32;100908.91;;;20.80;97.07
60725;BME280;59881;36.722;-4.462;2022-10-20T14:59:47;100935.25;;;21.01;97.46
60725;BME280;59881;36.722;-4.462;2022-10-20T15:02:20;100913.47;;;20.88;97.07
60725;BME280;59881;36.722;-4.462;2022-10-20T15:04:48;100591.50;;;18.94;96.52
60725;BME280;59881;36.722;-4.462;2022-10-20T15:07:32;100934.75;;;21.14;96.87
60725;BME280;59881;36.722;-4.462;2022-10-20T15:10:13;100871.78;;;20.94;96.53